Aviation Digital Data Service (ADDS)

Output produced by METARs form (0620 UTC 19 February 2019)
found at http://www.aviationweather.gov/metar/data/
 
METAR text: KGYY 190615Z AUTO 29005KT 10SM CLR M07/M08 A3057 RMK AO2 T10661082
Conditions at: KGYY (GARY REGIONAL , IN, US) observed 0615 UTC 19 February 2019
Temperature: -6.6°C (20°F)
Dewpoint: -8.2°C (17°F) [RH = 88%]
Pressure (altimeter): 30.57 inches Hg (1035.3 mb)
Winds: from the WNW (290 degrees) at 6 MPH (5 knots; 2.6 m/s)
Visibility: 10 or more miles (16+ km)
Ceiling: at least 12,000 feet AGL
Clouds: sky clear below 12,000 feet AGL
Weather: automated observation with no human augmentation;
there may or may not be significant weather present at this time

METAR text: KGYY 190555Z AUTO 28005KT 10SM CLR M06/M07 A3057 RMK AO2 T10581073 11025 21060 410101060
Conditions at: KGYY (GARY REGIONAL , IN, US) observed 0555 UTC 19 February 2019
Temperature: -5.8°C (22°F)
Dewpoint: -7.3°C (19°F) [RH = 89%]
Pressure (altimeter): 30.57 inches Hg (1035.3 mb)
Winds: from the W (280 degrees) at 6 MPH (5 knots; 2.6 m/s)
Visibility: 10 or more miles (16+ km)
Ceiling: at least 12,000 feet AGL
Clouds: sky clear below 12,000 feet AGL
Weather: automated observation with no human augmentation;
there may or may not be significant weather present at this time

METAR text: KGYY 190535Z AUTO 00000KT 10SM BKN037 M06/M07 A3057 RMK AO2 T10581073
Conditions at: KGYY (GARY REGIONAL , IN, US) observed 0535 UTC 19 February 2019
Temperature: -5.8°C (22°F)
Dewpoint: -7.3°C (19°F) [RH = 89%]
Pressure (altimeter): 30.57 inches Hg (1035.3 mb)
Winds: calm
Visibility: 10 or more miles (16+ km)
Ceiling: 3700 feet AGL
Clouds: broken clouds at 3700 feet AGL
Weather: automated observation with no human augmentation;
there may or may not be significant weather present at this time

METAR text: KGYY 190515Z AUTO 00000KT 10SM OVC039 M04/M07 A3056 RMK AO2 T10441069
Conditions at: KGYY (GARY REGIONAL , IN, US) observed 0515 UTC 19 February 2019
Temperature: -4.4°C (24°F)
Dewpoint: -6.9°C (20°F) [RH = 83%]
Pressure (altimeter): 30.56 inches Hg (1035.0 mb)
Winds: calm
Visibility: 10 or more miles (16+ km)
Ceiling: 3900 feet AGL
Clouds: overcast cloud deck at 3900 feet AGL
Weather: automated observation with no human augmentation;
there may or may not be significant weather present at this time

METAR text: KGYY 190455Z AUTO 23003KT 10SM OVC039 M04/M06 A3056 RMK AO2 T10361065
Conditions at: KGYY (GARY REGIONAL , IN, US) observed 0455 UTC 19 February 2019
Temperature: -3.6°C (26°F)
Dewpoint: -6.5°C (20°F) [RH = 80%]
Pressure (altimeter): 30.56 inches Hg (1035.0 mb)
Winds: from the SW (230 degrees) at 3 MPH (3 knots; 1.5 m/s)
Visibility: 10 or more miles (16+ km)
Ceiling: 3900 feet AGL
Clouds: overcast cloud deck at 3900 feet AGL
Weather: automated observation with no human augmentation;
there may or may not be significant weather present at this time

METAR text: KGYY 190435Z AUTO 23004KT 10SM BKN039 M05/M06 A3056 RMK AO2 T10471063
Conditions at: KGYY (GARY REGIONAL , IN, US) observed 0435 UTC 19 February 2019
Temperature: -4.7°C (24°F)
Dewpoint: -6.3°C (21°F) [RH = 89%]
Pressure (altimeter): 30.56 inches Hg (1035.0 mb)
Winds: from the SW (230 degrees) at 5 MPH (4 knots; 2.1 m/s)
Visibility: 10 or more miles (16+ km)
Ceiling: 3900 feet AGL
Clouds: broken clouds at 3900 feet AGL
Weather: automated observation with no human augmentation;
there may or may not be significant weather present at this time

METAR text: KGYY 190415Z AUTO 00000KT 10SM OVC039 M04/M07 A3056 RMK AO2 T10401068
Conditions at: KGYY (GARY REGIONAL , IN, US) observed 0415 UTC 19 February 2019
Temperature: -4.0°C (25°F)
Dewpoint: -6.8°C (20°F) [RH = 81%]
Pressure (altimeter): 30.56 inches Hg (1035.0 mb)
Winds: calm
Visibility: 10 or more miles (16+ km)
Ceiling: 3900 feet AGL
Clouds: overcast cloud deck at 3900 feet AGL
Weather: automated observation with no human augmentation;
there may or may not be significant weather present at this time

METAR text: KGYY 190345Z 00000KT 10SM BKN039 M03/M07 A3056
Conditions at: KGYY (GARY REGIONAL , IN, US) observed 0345 UTC 19 February 2019
Temperature: -3.0°C (27°F)
Dewpoint: -7.0°C (19°F) [RH = 74%]
Pressure (altimeter): 30.56 inches Hg (1035.0 mb)
Winds: calm
Visibility: 10 or more miles (16+ km)
Ceiling: 3900 feet AGL
Clouds: broken clouds at 3900 feet AGL
Weather: no significant weather observed at this time

METAR text: KGYY 190245Z 00000KT 10SM BKN032 M03/M07 A3054
Conditions at: KGYY (GARY REGIONAL , IN, US) observed 0245 UTC 19 February 2019
Temperature: -3.0°C (27°F)
Dewpoint: -7.0°C (19°F) [RH = 74%]
Pressure (altimeter): 30.54 inches Hg (1034.3 mb)
Winds: calm
Visibility: 10 or more miles (16+ km)
Ceiling: 3200 feet AGL
Clouds: broken clouds at 3200 feet AGL
Weather: no significant weather observed at this time

METAR text: KGYY 190145Z 00000KT 10SM BKN028 BKN035 M03/M07 A3053
Conditions at: KGYY (GARY REGIONAL , IN, US) observed 0145 UTC 19 February 2019
Temperature: -3.0°C (27°F)
Dewpoint: -7.0°C (19°F) [RH = 74%]
Pressure (altimeter): 30.53 inches Hg (1033.9 mb)
Winds: calm
Visibility: 10 or more miles (16+ km)
Ceiling: 2800 feet AGL
Clouds: broken clouds at 2800 feet AGL
broken clouds at 3500 feet AGL
Weather: no significant weather observed at this time

METAR text: KGYY 190045Z VRB04KT 10SM SCT024 BKN035 M03/M08 A3050
Conditions at: KGYY (GARY REGIONAL , IN, US) observed 0045 UTC 19 February 2019
Temperature: -3.0°C (27°F)
Dewpoint: -8.0°C (18°F) [RH = 68%]
Pressure (altimeter): 30.50 inches Hg (1032.9 mb)
Winds: variable direction winds at 5 MPH (4 knots; 2.1 m/s)
Visibility: 10 or more miles (16+ km)
Ceiling: 3500 feet AGL
Clouds: scattered clouds at 2400 feet AGL
broken clouds at 3500 feet AGL
Weather: no significant weather observed at this time

METAR text: KGYY 182245Z 35007KT 10SM SCT021 BKN043 M02/M07 A3045
Conditions at: KGYY (GARY REGIONAL , IN, US) observed 2245 UTC 18 February 2019
Temperature: -2.0°C (28°F)
Dewpoint: -7.0°C (19°F) [RH = 69%]
Pressure (altimeter): 30.45 inches Hg (1031.2 mb)
Winds: from the N (350 degrees) at 8 MPH (7 knots; 3.6 m/s)
Visibility: 10 or more miles (16+ km)
Ceiling: 4300 feet AGL
Clouds: scattered clouds at 2100 feet AGL
broken clouds at 4300 feet AGL
Weather: no significant weather observed at this time

METAR text: KGYY 182145Z 35007KT 10SM SCT019 BKN043 M02/M06 A3043
Conditions at: KGYY (GARY REGIONAL , IN, US) observed 2145 UTC 18 February 2019
Temperature: -2.0°C (28°F)
Dewpoint: -6.0°C (21°F) [RH = 74%]
Pressure (altimeter): 30.43 inches Hg (1030.6 mb)
Winds: from the N (350 degrees) at 8 MPH (7 knots; 3.6 m/s)
Visibility: 10 or more miles (16+ km)
Ceiling: 4300 feet AGL
Clouds: scattered clouds at 1900 feet AGL
broken clouds at 4300 feet AGL
Weather: no significant weather observed at this time

METAR text: KGYY 182045Z COR 35010KT 10SM SCT019 BKN026 M02/M06 A3041
Conditions at: KGYY (GARY REGIONAL , IN, US) observed 2045 UTC 18 February 2019
Temperature: -2.0°C (28°F)
Dewpoint: -6.0°C (21°F) [RH = 74%]
Pressure (altimeter): 30.41 inches Hg (1029.9 mb)
Winds: from the N (350 degrees) at 12 MPH (10 knots; 5.1 m/s)
Visibility: 10 or more miles (16+ km)
Ceiling: 2600 feet AGL
Clouds: scattered clouds at 1900 feet AGL
broken clouds at 2600 feet AGL
Weather: no significant weather observed at this time

METAR text: KGYY 181945Z 35012KT 10SM BKN030 M01/M08 A3039
Conditions at: KGYY (GARY REGIONAL , IN, US) observed 1945 UTC 18 February 2019
Temperature: -1.0°C (30°F)
Dewpoint: -8.0°C (18°F) [RH = 59%]
Pressure (altimeter): 30.39 inches Hg (1029.2 mb)
Winds: from the N (350 degrees) at 14 MPH (12 knots; 6.2 m/s)
Visibility: 10 or more miles (16+ km)
Ceiling: 3000 feet AGL
Clouds: broken clouds at 3000 feet AGL
Weather: no significant weather observed at this time

METAR text: KGYY 181845Z 35010KT 10SM BKN030 M02/M09 A3037
Conditions at: KGYY (GARY REGIONAL , IN, US) observed 1845 UTC 18 February 2019
Temperature: -2.0°C (28°F)
Dewpoint: -9.0°C (16°F) [RH = 59%]
Pressure (altimeter): 30.37 inches Hg (1028.5 mb)
Winds: from the N (350 degrees) at 12 MPH (10 knots; 5.1 m/s)
Visibility: 10 or more miles (16+ km)
Ceiling: 3000 feet AGL
Clouds: broken clouds at 3000 feet AGL
Weather: no significant weather observed at this time

METAR text: KGYY 181745Z 35010KT 10SM OVC022 M02/M06 A3033 RMK PRESRR
Conditions at: KGYY (GARY REGIONAL , IN, US) observed 1745 UTC 18 February 2019
Temperature: -2.0°C (28°F)
Dewpoint: -6.0°C (21°F) [RH = 74%]
Pressure (altimeter): 30.33 inches Hg (1027.2 mb)
Winds: from the N (350 degrees) at 12 MPH (10 knots; 5.1 m/s)
Visibility: 10 or more miles (16+ km)
Ceiling: 2200 feet AGL
Clouds: overcast cloud deck at 2200 feet AGL
Weather: no significant weather observed at this time

METAR text: KGYY 181645Z 01010KT 7SM BKN021 M02/M03 A3028 RMK SNE31
Conditions at: KGYY (GARY REGIONAL , IN, US) observed 1645 UTC 18 February 2019
Temperature: -2.0°C (28°F)
Dewpoint: -3.0°C (27°F) [RH = 93%]
Pressure (altimeter): 30.28 inches Hg (1025.5 mb)
Winds: from the N (10 degrees) at 12 MPH (10 knots; 5.1 m/s)
Visibility: 7 miles (11 km)
Ceiling: 2100 feet AGL
Clouds: broken clouds at 2100 feet AGL
Weather: no significant weather observed at this time

METAR text: KGYY 181545Z 36010KT 1 1/2SM -SN OVC008 M02/M03 A3025
Conditions at: KGYY (GARY REGIONAL , IN, US) observed 1545 UTC 18 February 2019
Temperature: -2.0°C (28°F)
Dewpoint: -3.0°C (27°F) [RH = 93%]
Pressure (altimeter): 30.25 inches Hg (1024.5 mb)
Winds: from the N (360 degrees) at 12 MPH (10 knots; 5.1 m/s)
Visibility: 1.50 miles (2.41 km)
Ceiling: 800 feet AGL
Clouds: overcast cloud deck at 800 feet AGL
Weather: -SN  (light snow)

METAR text: KGYY 181445Z 31006KT 1 1/4SM -SN OVC008 M02/M03 A3020
Conditions at: KGYY (GARY REGIONAL , IN, US) observed 1445 UTC 18 February 2019
Temperature: -2.0°C (28°F)
Dewpoint: -3.0°C (27°F) [RH = 93%]
Pressure (altimeter): 30.20 inches Hg (1022.8 mb)
Winds: from the NW (310 degrees) at 7 MPH (6 knots; 3.1 m/s)
Visibility: 1.25 miles (2.01 km)
Ceiling: 800 feet AGL
Clouds: overcast cloud deck at 800 feet AGL
Weather: -SN  (light snow)

METAR text: KGYY 181345Z 00000KT 2SM -SN OVC018 M03/M04 A3018
Conditions at: KGYY (GARY REGIONAL , IN, US) observed 1345 UTC 18 February 2019
Temperature: -3.0°C (27°F)
Dewpoint: -4.0°C (25°F) [RH = 93%]
Pressure (altimeter): 30.18 inches Hg (1022.1 mb)
Winds: calm
Visibility: 2.00 miles (3.22 km)
Ceiling: 1800 feet AGL
Clouds: overcast cloud deck at 1800 feet AGL
Weather: -SN  (light snow)

METAR text: KGYY 181245Z 03005KT 5SM -SN OVC021 M03/M04 A3013
Conditions at: KGYY (GARY REGIONAL , IN, US) observed 1245 UTC 18 February 2019
Temperature: -3.0°C (27°F)
Dewpoint: -4.0°C (25°F) [RH = 93%]
Pressure (altimeter): 30.13 inches Hg (1020.4 mb)
Winds: from the NNE (30 degrees) at 6 MPH (5 knots; 2.6 m/s)
Visibility: 5 miles ( 8 km)
Ceiling: 2100 feet AGL
Clouds: overcast cloud deck at 2100 feet AGL
Weather: -SN  (light snow)

METAR text: KGYY 181045Z 04008KT 5SM -SN BR OVC013 M03/M04 A3008
Conditions at: KGYY (GARY REGIONAL , IN, US) observed 1045 UTC 18 February 2019
Temperature: -3.0°C (27°F)
Dewpoint: -4.0°C (25°F) [RH = 93%]
Pressure (altimeter): 30.08 inches Hg (1018.7 mb)
Winds: from the NE (40 degrees) at 9 MPH (8 knots; 4.1 m/s)
Visibility: 5 miles ( 8 km)
Ceiling: 1300 feet AGL
Clouds: overcast cloud deck at 1300 feet AGL
Weather: -SN BR  (light snow, mist)

METAR text: KGYY 181015Z AUTO 03007KT 10SM UP SCT012 BKN017 OVC095 M02/M04 A3006 RMK AO2 T10231040
Conditions at: KGYY (GARY REGIONAL , IN, US) observed 1015 UTC 18 February 2019
Temperature: -2.3°C (28°F)
Dewpoint: -4.0°C (25°F) [RH = 88%]
Pressure (altimeter): 30.06 inches Hg (1018.0 mb)
Winds: from the NNE (30 degrees) at 8 MPH (7 knots; 3.6 m/s)
Visibility: 10 or more miles (16+ km)
Ceiling: 1700 feet AGL
Clouds: scattered clouds at 1200 feet AGL
broken clouds at 1700 feet AGL
overcast cloud deck at 9500 feet AGL
Weather: UP  (unknown precipitation)

METAR text: KGYY 180955Z AUTO 04006KT 7SM -SN BKN014 OVC022 M02/M04 A3005 RMK AO2 T10221036
Conditions at: KGYY (GARY REGIONAL , IN, US) observed 0955 UTC 18 February 2019
Temperature: -2.2°C (28°F)
Dewpoint: -3.6°C (26°F) [RH = 90%]
Pressure (altimeter): 30.05 inches Hg (1017.7 mb)
Winds: from the NE (40 degrees) at 7 MPH (6 knots; 3.1 m/s)
Visibility: 7 miles (11 km)
Ceiling: 1400 feet AGL
Clouds: broken clouds at 1400 feet AGL
overcast cloud deck at 2200 feet AGL
Weather: -SN  (light snow)

METAR text: KGYY 180935Z AUTO 03005KT 5SM -SN BKN016 OVC020 M02/M04 A3004 RMK AO2 T10231037
Conditions at: KGYY (GARY REGIONAL , IN, US) observed 0935 UTC 18 February 2019
Temperature: -2.3°C (28°F)
Dewpoint: -3.7°C (25°F) [RH = 90%]
Pressure (altimeter): 30.04 inches Hg (1017.4 mb)
Winds: from the NNE (30 degrees) at 6 MPH (5 knots; 2.6 m/s)
Visibility: 5 miles ( 8 km)
Ceiling: 1600 feet AGL
Clouds: broken clouds at 1600 feet AGL
overcast cloud deck at 2000 feet AGL
Weather: -SN  (light snow)

METAR text: KGYY 180915Z AUTO 03004KT 5SM -SN OVC024 M02/M04 A3003 RMK AO2 T10231037
Conditions at: KGYY (GARY REGIONAL , IN, US) observed 0915 UTC 18 February 2019
Temperature: -2.3°C (28°F)
Dewpoint: -3.7°C (25°F) [RH = 90%]
Pressure (altimeter): 30.03 inches Hg (1017.0 mb)
Winds: from the NNE (30 degrees) at 5 MPH (4 knots; 2.1 m/s)
Visibility: 5 miles ( 8 km)
Ceiling: 2400 feet AGL
Clouds: overcast cloud deck at 2400 feet AGL
Weather: -SN  (light snow)

METAR text: KGYY 180855Z AUTO 04004KT 7SM -SN SCT015 OVC024 M02/M04 A3002 RMK AO2 60001 T10221036
Conditions at: KGYY (GARY REGIONAL , IN, US) observed 0855 UTC 18 February 2019
Temperature: -2.2°C (28°F)
Dewpoint: -3.6°C (26°F) [RH = 90%]
Pressure (altimeter): 30.02 inches Hg (1016.7 mb)
Winds: from the NE (40 degrees) at 5 MPH (4 knots; 2.1 m/s)
Visibility: 7 miles (11 km)
Ceiling: 2400 feet AGL
Clouds: scattered clouds at 1500 feet AGL
overcast cloud deck at 2400 feet AGL
Weather: -SN  (light snow)

METAR text: KGYY 180835Z AUTO 04005KT 5SM -SN SCT013 BKN021 OVC034 M02/M03 A3002 RMK AO2 T10211035
Conditions at: KGYY (GARY REGIONAL , IN, US) observed 0835 UTC 18 February 2019
Temperature: -2.1°C (28°F)
Dewpoint: -3.5°C (26°F) [RH = 90%]
Pressure (altimeter): 30.02 inches Hg (1016.7 mb)
Winds: from the NE (40 degrees) at 6 MPH (5 knots; 2.6 m/s)
Visibility: 5 miles ( 8 km)
Ceiling: 2100 feet AGL
Clouds: scattered clouds at 1300 feet AGL
broken clouds at 2100 feet AGL
overcast cloud deck at 3400 feet AGL
Weather: -SN  (light snow)

METAR text: KGYY 180815Z AUTO 04004KT 5SM -SN BKN026 OVC034 M02/M04 A3002 RMK AO2 T10201036
Conditions at: KGYY (GARY REGIONAL , IN, US) observed 0815 UTC 18 February 2019
Temperature: -2.0°C (28°F)
Dewpoint: -3.6°C (26°F) [RH = 89%]
Pressure (altimeter): 30.02 inches Hg (1016.7 mb)
Winds: from the NE (40 degrees) at 5 MPH (4 knots; 2.1 m/s)
Visibility: 5 miles ( 8 km)
Ceiling: 2600 feet AGL
Clouds: broken clouds at 2600 feet AGL
overcast cloud deck at 3400 feet AGL
Weather: -SN  (light snow)

METAR text: KGYY 180755Z AUTO 05004KT 5SM -SN SCT013 SCT023 OVC032 M02/M04 A3001 RMK AO2 T10201036
Conditions at: KGYY (GARY REGIONAL , IN, US) observed 0755 UTC 18 February 2019
Temperature: -2.0°C (28°F)
Dewpoint: -3.6°C (26°F) [RH = 89%]
Pressure (altimeter): 30.01 inches Hg (1016.3 mb)
Winds: from the NE (50 degrees) at 5 MPH (4 knots; 2.1 m/s)
Visibility: 5 miles ( 8 km)
Ceiling: 3200 feet AGL
Clouds: scattered clouds at 1300 feet AGL
scattered clouds at 2300 feet AGL
overcast cloud deck at 3200 feet AGL
Weather: -SN  (light snow)

METAR text: KGYY 180735Z AUTO 04005KT 4SM -SN BKN012 OVC021 M02/M03 A3000 RMK AO2 T10201035
Conditions at: KGYY (GARY REGIONAL , IN, US) observed 0735 UTC 18 February 2019
Temperature: -2.0°C (28°F)
Dewpoint: -3.5°C (26°F) [RH = 89%]
Pressure (altimeter): 30.00 inches Hg (1016.0 mb)
Winds: from the NE (40 degrees) at 6 MPH (5 knots; 2.6 m/s)
Visibility: 4 miles ( 6 km)
Ceiling: 1200 feet AGL
Clouds: broken clouds at 1200 feet AGL
overcast cloud deck at 2100 feet AGL
Weather: -SN  (light snow)

METAR text: KGYY 180715Z AUTO 04005KT 4SM -SN BKN014 OVC022 M02/M03 A2999 RMK AO2 T10181033
Conditions at: KGYY (GARY REGIONAL , IN, US) observed 0715 UTC 18 February 2019
Temperature: -1.8°C (29°F)
Dewpoint: -3.3°C (26°F) [RH = 89%]
Pressure (altimeter): 29.99 inches Hg (1015.7 mb)
Winds: from the NE (40 degrees) at 6 MPH (5 knots; 2.6 m/s)
Visibility: 4 miles ( 6 km)
Ceiling: 1400 feet AGL
Clouds: broken clouds at 1400 feet AGL
overcast cloud deck at 2200 feet AGL
Weather: -SN  (light snow)

METAR text: KGYY 180655Z AUTO 05006KT 5SM -SN BKN012 BKN018 OVC024 M02/M03 A2999 RMK AO2 P0001 T10181033
Conditions at: KGYY (GARY REGIONAL , IN, US) observed 0655 UTC 18 February 2019
Temperature: -1.8°C (29°F)
Dewpoint: -3.3°C (26°F) [RH = 89%]
Pressure (altimeter): 29.99 inches Hg (1015.7 mb)
Winds: from the NE (50 degrees) at 7 MPH (6 knots; 3.1 m/s)
Visibility: 5 miles ( 8 km)
Ceiling: 1200 feet AGL
Clouds: broken clouds at 1200 feet AGL
broken clouds at 1800 feet AGL
overcast cloud deck at 2400 feet AGL
Weather: -SN  (light snow)

METAR text: KGYY 180635Z AUTO 05003KT 5SM -SN BKN012 OVC020 M02/M03 A2998 RMK AO2 P0001 T10181030
Conditions at: KGYY (GARY REGIONAL , IN, US) observed 0635 UTC 18 February 2019
Temperature: -1.8°C (29°F)
Dewpoint: -3.0°C (27°F) [RH = 91%]
Pressure (altimeter): 29.98 inches Hg (1015.3 mb)
Winds: from the NE (50 degrees) at 3 MPH (3 knots; 1.5 m/s)
Visibility: 5 miles ( 8 km)
Ceiling: 1200 feet AGL
Clouds: broken clouds at 1200 feet AGL
overcast cloud deck at 2000 feet AGL
Weather: -SN  (light snow)

METAR text: KGYY 180615Z AUTO 04006KT 7SM -SN SCT012 BKN020 OVC027 M02/M03 A2996 RMK AO2 P0001 T10191030
Conditions at: KGYY (GARY REGIONAL , IN, US) observed 0615 UTC 18 February 2019
Temperature: -1.9°C (29°F)
Dewpoint: -3.0°C (27°F) [RH = 92%]
Pressure (altimeter): 29.96 inches Hg (1014.6 mb)
Winds: from the NE (40 degrees) at 7 MPH (6 knots; 3.1 m/s)
Visibility: 7 miles (11 km)
Ceiling: 2000 feet AGL
Clouds: scattered clouds at 1200 feet AGL
broken clouds at 2000 feet AGL
overcast cloud deck at 2700 feet AGL
Weather: -SN  (light snow)

METAR text: KGYY 180555Z AUTO 03005KT 5SM -SN SCT010 SCT017 OVC027 M02/M03 A2995 RMK AO2 60001 T10201030 11013 21020 410021032
Conditions at: KGYY (GARY REGIONAL , IN, US) observed 0555 UTC 18 February 2019
Temperature: -2.0°C (28°F)
Dewpoint: -3.0°C (27°F) [RH = 93%]
Pressure (altimeter): 29.95 inches Hg (1014.3 mb)
Winds: from the NNE (30 degrees) at 6 MPH (5 knots; 2.6 m/s)
Visibility: 5 miles ( 8 km)
Ceiling: 2700 feet AGL
Clouds: scattered clouds at 1000 feet AGL
scattered clouds at 1700 feet AGL
overcast cloud deck at 2700 feet AGL
Weather: -SN  (light snow)

METAR text: KGYY 180535Z AUTO 05005KT 3SM -SN OVC010 M02/M03 A2995 RMK AO2 T10181026
Conditions at: KGYY (GARY REGIONAL , IN, US) observed 0535 UTC 18 February 2019
Temperature: -1.8°C (29°F)
Dewpoint: -2.6°C (27°F) [RH = 94%]
Pressure (altimeter): 29.95 inches Hg (1014.3 mb)
Winds: from the NE (50 degrees) at 6 MPH (5 knots; 2.6 m/s)
Visibility: 3 miles ( 5 km)
Ceiling: 1000 feet AGL
Clouds: overcast cloud deck at 1000 feet AGL
Weather: -SN  (light snow)

METAR text: KGYY 180515Z AUTO 00000KT 2 1/2SM -SN BKN010 OVC015 M02/M03 A2994 RMK AO2 T10191026
Conditions at: KGYY (GARY REGIONAL , IN, US) observed 0515 UTC 18 February 2019
Temperature: -1.9°C (29°F)
Dewpoint: -2.6°C (27°F) [RH = 95%]
Pressure (altimeter): 29.94 inches Hg (1014.0 mb)
Winds: calm
Visibility: 2.50 miles (4.02 km)
Ceiling: 1000 feet AGL
Clouds: broken clouds at 1000 feet AGL
overcast cloud deck at 1500 feet AGL
Weather: -SN  (light snow)

METAR text: KGYY 180455Z AUTO 09003KT 2 1/2SM -SN BKN010 OVC013 M02/M03 A2992 RMK AO2 T10201030
Conditions at: KGYY (GARY REGIONAL , IN, US) observed 0455 UTC 18 February 2019
Temperature: -2.0°C (28°F)
Dewpoint: -3.0°C (27°F) [RH = 93%]
Pressure (altimeter): 29.92 inches Hg (1013.3 mb)
Winds: from the E (90 degrees) at 3 MPH (3 knots; 1.5 m/s)
Visibility: 2.50 miles (4.02 km)
Ceiling: 1000 feet AGL
Clouds: broken clouds at 1000 feet AGL
overcast cloud deck at 1300 feet AGL
Weather: -SN  (light snow)

METAR text: KGYY 180435Z AUTO 10003KT 3SM -SN OVC009 M02/M03 A2992 RMK AO2 T10201026
Conditions at: KGYY (GARY REGIONAL , IN, US) observed 0435 UTC 18 February 2019
Temperature: -2.0°C (28°F)
Dewpoint: -2.6°C (27°F) [RH = 96%]
Pressure (altimeter): 29.92 inches Hg (1013.3 mb)
Winds: from the E (100 degrees) at 3 MPH (3 knots; 1.5 m/s)
Visibility: 3 miles ( 5 km)
Ceiling: 900 feet AGL
Clouds: overcast cloud deck at 900 feet AGL
Weather: -SN  (light snow)

METAR text: KGYY 180415Z AUTO 00000KT 3SM -SN OVC009 M02/M02 A2992 RMK AO2 T10201025
Conditions at: KGYY (GARY REGIONAL , IN, US) observed 0415 UTC 18 February 2019
Temperature: -2.0°C (28°F)
Dewpoint: -2.5°C (28°F) [RH = 96%]
Pressure (altimeter): 29.92 inches Hg (1013.3 mb)
Winds: calm
Visibility: 3 miles ( 5 km)
Ceiling: 900 feet AGL
Clouds: overcast cloud deck at 900 feet AGL
Weather: -SN  (light snow)

METAR text: KGYY 180345Z 00000KT 2SM -SN BR OVC011 M02/M03 A2991
Conditions at: KGYY (GARY REGIONAL , IN, US) observed 0345 UTC 18 February 2019
Temperature: -2.0°C (28°F)
Dewpoint: -3.0°C (27°F) [RH = 93%]
Pressure (altimeter): 29.91 inches Hg (1013.0 mb)
Winds: calm
Visibility: 2.00 miles (3.22 km)
Ceiling: 1100 feet AGL
Clouds: overcast cloud deck at 1100 feet AGL
Weather: -SN BR  (light snow, mist)

METAR text: KGYY 180245Z COR 12004KT 2SM -SN BR OVC018 M02/M03 A2990
Conditions at: KGYY (GARY REGIONAL , IN, US) observed 0245 UTC 18 February 2019
Temperature: -2.0°C (28°F)
Dewpoint: -3.0°C (27°F) [RH = 93%]
Pressure (altimeter): 29.90 inches Hg (1012.6 mb)
Winds: from the ESE (120 degrees) at 5 MPH (4 knots; 2.1 m/s)
Visibility: 2.00 miles (3.22 km)
Ceiling: 1800 feet AGL
Clouds: overcast cloud deck at 1800 feet AGL
Weather: -SN BR  (light snow, mist)

METAR text: KGYY 180145Z 00000KT 4SM -SN BR OVC010 M02/M02 A2988 RMK FZDZE44
Conditions at: KGYY (GARY REGIONAL , IN, US) observed 0145 UTC 18 February 2019
Temperature: -2.0°C (28°F)
Dewpoint: -2.0°C (28°F) [RH = 100%]
Pressure (altimeter): 29.88 inches Hg (1011.9 mb)
Winds: calm
Visibility: 4 miles ( 6 km)
Ceiling: 1000 feet AGL
Clouds: overcast cloud deck at 1000 feet AGL
Weather: -SN BR  (light snow, mist)

METAR text: KGYY 180045Z 10005KT 2 1/2SM -FZDZSN OVC006 M02/M02 A2987
Conditions at: KGYY (GARY REGIONAL , IN, US) observed 0045 UTC 18 February 2019
Temperature: -2.0°C (28°F)
Dewpoint: -2.0°C (28°F) [RH = 100%]
Pressure (altimeter): 29.87 inches Hg (1011.6 mb)
Winds: from the E (100 degrees) at 6 MPH (5 knots; 2.6 m/s)
Visibility: 2.50 miles (4.02 km)
Ceiling: 600 feet AGL
Clouds: overcast cloud deck at 600 feet AGL
Weather: -FZDZ SN  (light freezing drizzle, moderate snow)

METAR text: KGYY 172345Z 09004KT 3SM -FZDZSN BKN007 OVC013 M01/M02 A2984 RMK FZDZB38
Conditions at: KGYY (GARY REGIONAL , IN, US) observed 2345 UTC 17 February 2019
Temperature: -1.0°C (30°F)
Dewpoint: -2.0°C (28°F) [RH = 93%]
Pressure (altimeter): 29.84 inches Hg (1010.6 mb)
Winds: from the E (90 degrees) at 5 MPH (4 knots; 2.1 m/s)
Visibility: 3 miles ( 5 km)
Ceiling: 700 feet AGL
Clouds: broken clouds at 700 feet AGL
overcast cloud deck at 1300 feet AGL
Weather: -FZDZ SN  (light freezing drizzle, moderate snow)

METAR text: KGYY 172245Z 00000KT 2SM -SN BR OVC015 M01/M03 A2982
Conditions at: KGYY (GARY REGIONAL , IN, US) observed 2245 UTC 17 February 2019
Temperature: -1.0°C (30°F)
Dewpoint: -3.0°C (27°F) [RH = 86%]
Pressure (altimeter): 29.82 inches Hg (1009.9 mb)
Winds: calm
Visibility: 2.00 miles (3.22 km)
Ceiling: 1500 feet AGL
Clouds: overcast cloud deck at 1500 feet AGL
Weather: -SN BR  (light snow, mist)

METAR text: KGYY 172145Z VRB04KT 5SM -SN BR OVC020 M01/M05 A2982 RMK SNB41
Conditions at: KGYY (GARY REGIONAL , IN, US) observed 2145 UTC 17 February 2019
Temperature: -1.0°C (30°F)
Dewpoint: -5.0°C (23°F) [RH = 74%]
Pressure (altimeter): 29.82 inches Hg (1009.9 mb)
Winds: variable direction winds at 5 MPH (4 knots; 2.1 m/s)
Visibility: 5 miles ( 8 km)
Ceiling: 2000 feet AGL
Clouds: overcast cloud deck at 2000 feet AGL
Weather: -SN BR  (light snow, mist)

METAR text: KGYY 172045Z VRB05KT 10SM OVC020 M00/M05 A2979
Conditions at: KGYY (GARY REGIONAL , IN, US) observed 2045 UTC 17 February 2019
Temperature: 0.0°C (32°F)
Dewpoint: -5.0°C (23°F) [RH = 69%]
Pressure (altimeter): 29.79 inches Hg (1008.9 mb)
Winds: variable direction winds at 6 MPH (5 knots; 2.6 m/s)
Visibility: 10 or more miles (16+ km)
Ceiling: 2000 feet AGL
Clouds: overcast cloud deck at 2000 feet AGL
Weather: no significant weather observed at this time

METAR text: KGYY 171945Z 09008KT 10SM OVC020 00/M05 A2980 RMK SNE31
Conditions at: KGYY (GARY REGIONAL , IN, US) observed 1945 UTC 17 February 2019
Temperature: 0.0°C (32°F)
Dewpoint: -5.0°C (23°F) [RH = 69%]
Pressure (altimeter): 29.80 inches Hg (1009.2 mb)
Winds: from the E (90 degrees) at 9 MPH (8 knots; 4.1 m/s)
Visibility: 10 or more miles (16+ km)
Ceiling: 2000 feet AGL
Clouds: overcast cloud deck at 2000 feet AGL
Weather: no significant weather observed at this time

METAR text: KGYY 171845Z 08008KT 7SM -SN OVC020 M01/M05 A2982
Conditions at: KGYY (GARY REGIONAL , IN, US) observed 1845 UTC 17 February 2019
Temperature: -1.0°C (30°F)
Dewpoint: -5.0°C (23°F) [RH = 74%]
Pressure (altimeter): 29.82 inches Hg (1009.9 mb)
Winds: from the E (80 degrees) at 9 MPH (8 knots; 4.1 m/s)
Visibility: 7 miles (11 km)
Ceiling: 2000 feet AGL
Clouds: overcast cloud deck at 2000 feet AGL
Weather: -SN  (light snow)

Forecast for: KGYY (GARY REGIONAL , IN, US)
Text: KGYY 190524Z 1906/2006 33005KT P6SM SCT025 BKN035
Forecast period: 0600 to 1300 UTC 19 February 2019
Forecast type: FROM: standard forecast or significant change
Winds: from the NNW (330 degrees) at 6 MPH (5 knots; 2.6 m/s)
Visibility: 6 or more miles 10+ km)
Ceiling: 3500 feet AGL
Clouds: scattered clouds at 2500 feet AGL
broken clouds at 3500 feet AGL
Weather: no significant weather forecast for this period
Text: FM191300 VRB03KT P6SM SCT030 SCT250
Forecast period: 1300 to 1800 UTC 19 February 2019
Forecast type: FROM: standard forecast or significant change
Winds: variable direction winds at 3 MPH (3 knots; 1.5 m/s)
Visibility: 6 or more miles 10+ km)
Ceiling: at least 12,000 feet AGL
Clouds: scattered clouds at 3000 feet AGL
scattered clouds at 25000 feet AGL
Weather: no significant weather forecast for this period
Text: FM191800 07006KT P6SM SCT035 BKN200
Forecast period: 1800 UTC 19 February 2019 to 0300 UTC 20 February 2019
Forecast type: FROM: standard forecast or significant change
Winds: from the ENE (70 degrees) at 7 MPH (6 knots; 3.1 m/s)
Visibility: 6 or more miles 10+ km)
Ceiling: 20000 feet AGL
Clouds: scattered clouds at 3500 feet AGL
broken clouds at 20000 feet AGL
Weather: no significant weather forecast for this period
Text: FM200300 11009KT P6SM SCT035 OVC100
Forecast period: 0300 to 0600 UTC 20 February 2019
Forecast type: FROM: standard forecast or significant change
Winds: from the ESE (110 degrees) at 10 MPH (9 knots; 4.6 m/s)
Visibility: 6 or more miles 10+ km)
Ceiling: 10000 feet AGL
Clouds: scattered clouds at 3500 feet AGL
overcast cloud deck at 10000 feet AGL
Weather: no significant weather forecast for this period